Zim Luanda — 9HA2029 — position and weather

sailwx.info

Track history (hours):
 
Tides and Currents Weather Stations Pressure Air Temp Water Temp Dewpoint Dewpoint Depression Visibility Wind Speed Wind Dir Waves Ship Positions

Zim Luanda

Last reported at 2018-Apr-22 19:56 UTC. Time now 2018-Apr-22 20:09 UTC.
Position N 39°28' W 073°60'.

Length 260 m; draft 11.3 m.

Type: Ship (hazmat cat A). MMSI: 249830000.

Date/timePositionNaut miles runAvg speedWind from/ knotsBaromVisibWave heightAir tempDewpointWater temp
2018-Apr-22 19:56N 39°28' W 073°60'919.5
2018-Apr-22 19:28N 39°36' W 073°56'919.8
2018-Apr-22 19:00N 39°45' W 073°52'1019.9
2018-Apr-22 18:30N 39°55' W 073°51'3311.6
2018-Apr-22 15:38N 40°28' W 073°52'1 9.8
2018-Apr-22 15:30N 40°29' W 073°54'612.0
2018-Apr-22 15:00N 40°31' W 074°01'713.6
2018-Apr-22 14:30N 40°38' W 074°03'4 7.5
2018-Apr-22 14:00N 40°39' W 074°08'2 3.3
2018-Apr-22 13:30N 40°40' W 074°08'0 0.1
2018-Apr-22 13:00N 40°40' W 074°08'0 0.0
2018-Apr-22 12:28N 40°40' W 074°08'0 0.0
2018-Apr-22 11:58N 40°40' W 074°08'0 0.0
2018-Apr-22 11:28N 40°40' W 074°08'0 0.0
2018-Apr-22 10:58N 40°40' W 074°08'0 0.0
2018-Apr-22 10:28N 40°40' W 074°08'0 0.0
2018-Apr-22 09:58N 40°40' W 074°08'0 0.0
2018-Apr-22 09:28N 40°40' W 074°08'0 0.0
2018-Apr-22 08:58N 40°40' W 074°08'0 0.0
2018-Apr-22 08:28N 40°40' W 074°08'0 0.0
2018-Apr-22 07:58N 40°40' W 074°08'0 0.0
2018-Apr-22 07:28N 40°40' W 074°08'0 0.0
2018-Apr-22 06:58N 40°40' W 074°09'0 0.0
2018-Apr-22 06:28N 40°40' W 074°08'0 0.0
2018-Apr-22 05:58N 40°40' W 074°08'0 0.0
2018-Apr-22 05:28N 40°40' W 074°08'0 0.0
2018-Apr-22 04:58N 40°40' W 074°08'0 0.0
2018-Apr-22 04:28N 40°40' W 074°08'0 0.0
2018-Apr-22 03:58N 40°40' W 074°08'0 0.0
2018-Apr-22 03:28N 40°40' W 074°08'0 0.0
2018-Apr-22 02:58N 40°40' W 074°08'0 0.0
2018-Apr-22 02:28N 40°40' W 074°08'0 0.0
2018-Apr-22 01:58N 40°40' W 074°08'0 0.0
2018-Apr-22 01:28N 40°40' W 074°08'0 0.0
2018-Apr-22 00:58N 40°40' W 074°08'0 0.0
2018-Apr-22 00:28N 40°40' W 074°08'0 0.0
2018-Apr-21 23:58N 40°40' W 074°08'0 0.0
2018-Apr-21 23:28N 40°40' W 074°08'0 0.0
2018-Apr-21 22:58N 40°40' W 074°08'0 0.0
2018-Apr-21 22:28N 40°40' W 074°08'0 0.0
2018-Apr-21 21:58N 40°40' W 074°08'0 0.0
2018-Apr-21 21:28N 40°40' W 074°08'0 0.0
2018-Apr-21 20:58N 40°40' W 074°08'0 0.0
2018-Apr-21 20:28N 40°40' W 074°08'0 0.0
2018-Apr-21 19:58N 40°40' W 074°08'0 0.0
2018-Apr-21 19:28N 40°40' W 074°08'0 0.0
2018-Apr-21 18:58N 40°40' W 074°08'0 0.0
2018-Apr-21 18:28N 40°40' W 074°08'0 0.0
2018-Apr-21 17:58N 40°40' W 074°08'0 0.0
2018-Apr-21 17:28N 40°40' W 074°08'0 0.0
2018-Apr-21 16:58N 40°40' W 074°08'0 0.0
2018-Apr-21 16:28N 40°40' W 074°08'0 0.0
2018-Apr-21 15:58N 40°40' W 074°08'0 0.0
2018-Apr-21 15:28N 40°40' W 074°08'0 0.0
2018-Apr-21 14:58N 40°40' W 074°08'1 1.3
2018-Apr-21 14:30N 40°40' W 074°09'3 5.0
2018-Apr-21 14:00N 40°39' W 074°05'4 7.0
2018-Apr-21 13:30N 40°36' W 074°03'713.4
2018-Apr-21 12:59N 40°30' W 073°57'510.0
2018-Apr-21 12:30N 40°28' W 073°52'3 6.9
2018-Apr-21 12:00N 40°26' W 073°48'4 8.5
2018-Apr-21 11:30N 40°27' W 073°42'4 8.9
2018-Apr-21 11:00N 40°28' W 073°37'  
2018-Apr-14 13:54N 35°32' W 025°09'819.5
2018-Apr-14 13:30N 35°31' W 024°60'1119.3
2018-Apr-14 12:57N 35°29' W 024°47'1218.8
2018-Apr-14 12:18N 35°26' W 024°32'618.6
2018-Apr-14 12:00N 35°24' W 024°26'7819.1
2018-Apr-14 07:55N 35°07' W 022°53'1419.3
2018-Apr-14 07:12N 35°04' W 022°36'  
Track history (hours):
 
Tides and Currents Weather Stations Pressure Air Temp Water Temp Dewpoint Dewpoint Depression Visibility Wind Speed Wind Dir Waves Ship Positions

Zim Luanda

Last reported at 2018-Apr-22 19:56 UTC. Time now 2018-Apr-22 20:09 UTC.
Position N 39°28' W 073°60'.

Length 260 m; draft 11.3 m.

Type: Ship (hazmat cat A). MMSI: 249830000.

Date/timePositionNaut miles runAvg speedWind from/ knotsBaromVisibWave heightAir tempDewpointWater temp
2018-Apr-22 19:56N 39°28' W 073°60'919.5
2018-Apr-22 19:28N 39°36' W 073°56'919.8
2018-Apr-22 19:00N 39°45' W 073°52'1019.9
2018-Apr-22 18:30N 39°55' W 073°51'3311.6
2018-Apr-22 15:38N 40°28' W 073°52'1 9.8
2018-Apr-22 15:30N 40°29' W 073°54'612.0
2018-Apr-22 15:00N 40°31' W 074°01'713.6
2018-Apr-22 14:30N 40°38' W 074°03'4 7.5
2018-Apr-22 14:00N 40°39' W 074°08'2 3.3
2018-Apr-22 13:30N 40°40' W 074°08'0 0.1
2018-Apr-22 13:00N 40°40' W 074°08'0 0.0
2018-Apr-22 12:28N 40°40' W 074°08'0 0.0
2018-Apr-22 11:58N 40°40' W 074°08'0 0.0
2018-Apr-22 11:28N 40°40' W 074°08'0 0.0
2018-Apr-22 10:58N 40°40' W 074°08'0 0.0
2018-Apr-22 10:28N 40°40' W 074°08'0 0.0
2018-Apr-22 09:58N 40°40' W 074°08'0 0.0
2018-Apr-22 09:28N 40°40' W 074°08'0 0.0
2018-Apr-22 08:58N 40°40' W 074°08'0 0.0
2018-Apr-22 08:28N 40°40' W 074°08'0 0.0
2018-Apr-22 07:58N 40°40' W 074°08'0 0.0
2018-Apr-22 07:28N 40°40' W 074°08'0 0.0
2018-Apr-22 06:58N 40°40' W 074°09'0 0.0
2018-Apr-22 06:28N 40°40' W 074°08'0 0.0
2018-Apr-22 05:58N 40°40' W 074°08'0 0.0
2018-Apr-22 05:28N 40°40' W 074°08'0 0.0
2018-Apr-22 04:58N 40°40' W 074°08'0 0.0
2018-Apr-22 04:28N 40°40' W 074°08'0 0.0
2018-Apr-22 03:58N 40°40' W 074°08'0 0.0
2018-Apr-22 03:28N 40°40' W 074°08'0 0.0
2018-Apr-22 02:58N 40°40' W 074°08'0 0.0
2018-Apr-22 02:28N 40°40' W 074°08'0 0.0
2018-Apr-22 01:58N 40°40' W 074°08'0 0.0
2018-Apr-22 01:28N 40°40' W 074°08'0 0.0
2018-Apr-22 00:58N 40°40' W 074°08'0 0.0
2018-Apr-22 00:28N 40°40' W 074°08'0 0.0
2018-Apr-21 23:58N 40°40' W 074°08'0 0.0
2018-Apr-21 23:28N 40°40' W 074°08'0 0.0
2018-Apr-21 22:58N 40°40' W 074°08'0 0.0
2018-Apr-21 22:28N 40°40' W 074°08'0 0.0
2018-Apr-21 21:58N 40°40' W 074°08'0 0.0
2018-Apr-21 21:28N 40°40' W 074°08'0 0.0
2018-Apr-21 20:58N 40°40' W 074°08'0 0.0
2018-Apr-21 20:28N 40°40' W 074°08'0 0.0
2018-Apr-21 19:58N 40°40' W 074°08'0 0.0
2018-Apr-21 19:28N 40°40' W 074°08'0 0.0
2018-Apr-21 18:58N 40°40' W 074°08'0 0.0
2018-Apr-21 18:28N 40°40' W 074°08'0 0.0
2018-Apr-21 17:58N 40°40' W 074°08'0 0.0
2018-Apr-21 17:28N 40°40' W 074°08'0 0.0
2018-Apr-21 16:58N 40°40' W 074°08'0 0.0
2018-Apr-21 16:28N 40°40' W 074°08'0 0.0
2018-Apr-21 15:58N 40°40' W 074°08'0 0.0
2018-Apr-21 15:28N 40°40' W 074°08'0 0.0
2018-Apr-21 14:58N 40°40' W 074°08'1 1.3
2018-Apr-21 14:30N 40°40' W 074°09'3 5.0
2018-Apr-21 14:00N 40°39' W 074°05'4 7.0
2018-Apr-21 13:30N 40°36' W 074°03'713.4
2018-Apr-21 12:59N 40°30' W 073°57'510.0
2018-Apr-21 12:30N 40°28' W 073°52'3 6.9
2018-Apr-21 12:00N 40°26' W 073°48'4 8.5
2018-Apr-21 11:30N 40°27' W 073°42'4 8.9
2018-Apr-21 11:00N 40°28' W 073°37'  
2018-Apr-14 13:54N 35°32' W 025°09'819.5
2018-Apr-14 13:30N 35°31' W 024°60'1119.3
2018-Apr-14 12:57N 35°29' W 024°47'1218.8
2018-Apr-14 12:18N 35°26' W 024°32'618.6
2018-Apr-14 12:00N 35°24' W 024°26'7819.1
2018-Apr-14 07:55N 35°07' W 022°53'1419.3
2018-Apr-14 07:12N 35°04' W 022°36'  

Dump ship's entire track history